Syzran, Russia
Current Conditions -  °F | °C
As of 5:00 PM on Monday 20 Oct 2014 (Local Time) from UWWW Reporting Station
Overcast Overcast  
Wind Chill: 20°   Ceiling: 10000
Heat Index: 28°   Visibility: 6mi
Dew Point: 19°   Wind: 9mph
Humidity: 69%   Direction: 170°S
Pressure: 29.77"   Gusts: NA
Location:  53.17°N, 48.47°E
Report Text: UWWW 201300Z 17004MPS 9999 SCT026 OVC100 M02/M07 Q1008 2329004515//99// TEMPO 1500 SNRA RMK QFE745/0993
Loading
Personal Weather Stations






























Interactive Weather Map
Tropical Storm Tracking
New forecast layout! Learn more

10-Day Weather Forecast

Advertisements
Track Severe Weather on mobile